createdAt,value
2023-02-18T00:03:54.436Z,2.13
2023-02-18T00:09:15.267Z,2.08
2023-02-18T00:14:35.965Z,2.20
2023-02-18T00:19:57.292Z,2.80
2023-02-18T00:25:18.000Z,2.90
2023-02-18T00:30:43.311Z,2.80
2023-02-18T00:36:07.078Z,2.20
2023-02-18T00:41:29.419Z,2.90
2023-02-18T00:46:51.573Z,2.63
2023-02-18T00:52:12.366Z,2.67
2023-02-18T00:57:35.006Z,2.47
2023-02-18T01:02:55.784Z,1.90
2023-02-18T01:08:18.666Z,1.80
2023-02-18T01:13:40.661Z,1.35
2023-02-18T01:19:01.608Z,1.73
2023-02-18T01:24:22.397Z,1.60
2023-02-18T01:29:43.803Z,1.30
2023-02-18T01:35:07.063Z,2.13
2023-02-18T01:40:29.488Z,1.17
2023-02-18T01:45:52.782Z,2.55
2023-02-18T01:51:26.391Z,1.10
2023-02-18T01:56:55.401Z,1.88
2023-02-18T02:02:21.386Z,2.13
2023-02-18T02:07:43.417Z,1.77
2023-02-18T02:13:15.570Z,1.20
2023-02-18T02:18:45.143Z,1.35
2023-02-18T02:24:37.128Z,1.75
2023-02-18T02:30:07.748Z,2.88
2023-02-18T02:35:41.811Z,1.38
2023-02-18T02:41:33.105Z,1.50
2023-02-18T02:47:02.161Z,3.30
2023-02-18T02:52:36.332Z,1.10
2023-02-18T02:57:57.509Z,1.25
2023-02-18T03:04:03.657Z,1.83
2023-02-18T03:09:34.508Z,1.58
2023-02-18T03:15:16.949Z,1.20
2023-02-18T03:20:45.964Z,1.52
2023-02-18T03:26:09.397Z,1.77
2023-02-18T03:31:34.519Z,1.40
2023-02-18T03:36:58.027Z,2.00
2023-02-18T03:42:19.134Z,2.03
2023-02-18T03:47:40.169Z,1.40
2023-02-18T03:53:01.378Z,1.20
2023-02-18T03:58:22.012Z,1.58
2023-02-18T04:03:42.653Z,2.13
2023-02-18T04:09:08.933Z,2.88
2023-02-18T04:14:29.681Z,2.58
2023-02-18T04:19:50.311Z,2.00
2023-02-18T04:25:11.216Z,2.10
2023-02-18T04:30:32.252Z,1.35
2023-02-18T04:35:52.793Z,2.63
2023-02-18T04:41:13.435Z,1.40
2023-02-18T04:46:34.192Z,2.50
2023-02-18T04:51:54.894Z,1.92
2023-02-18T04:57:15.646Z,1.42
2023-02-18T05:02:36.313Z,1.67
2023-02-18T05:07:57.284Z,1.33
2023-02-18T05:13:18.170Z,1.90
2023-02-18T05:18:38.852Z,1.63
2023-02-18T05:23:59.741Z,1.83
2023-02-18T05:29:20.921Z,2.88
2023-02-18T05:34:41.846Z,1.30
2023-02-18T05:40:03.793Z,0.90
2023-02-18T05:45:24.413Z,1.42
2023-02-18T05:50:45.325Z,1.08
2023-02-18T05:56:07.033Z,3.28
2023-02-18T06:01:27.961Z,0.88
2023-02-18T06:06:49.196Z,1.08
2023-02-18T06:12:10.138Z,1.02
2023-02-18T06:17:30.868Z,1.13
2023-02-18T06:22:51.647Z,0.63
2023-02-18T06:28:12.341Z,1.30
2023-02-18T06:33:33.145Z,1.30
2023-02-18T06:38:57.437Z,0.80
2023-02-18T06:44:18.166Z,2.22
2023-02-18T06:49:39.103Z,1.02
2023-02-18T06:55:00.725Z,0.95
2023-02-18T07:00:22.795Z,1.10
2023-02-18T07:05:43.733Z,1.83
2023-02-18T07:11:05.033Z,0.93
2023-02-18T07:16:25.986Z,0.73
2023-02-18T07:21:46.972Z,1.77
2023-02-18T07:27:07.856Z,0.73
2023-02-18T07:32:28.965Z,2.15
2023-02-18T07:37:50.446Z,2.15
2023-02-18T07:43:11.399Z,0.88
2023-02-18T07:48:32.171Z,1.35
2023-02-18T07:53:52.869Z,0.80
2023-02-18T07:59:14.179Z,0.75
2023-02-18T08:04:34.943Z,1.05
2023-02-18T08:09:55.623Z,1.40
2023-02-18T08:15:16.572Z,1.65
2023-02-18T08:20:38.664Z,1.08
2023-02-18T08:25:59.445Z,1.35
2023-02-18T08:31:25.905Z,0.60
2023-02-18T08:36:47.098Z,1.13
2023-02-18T08:42:07.996Z,0.60
2023-02-18T08:48:18.157Z,0.80
2023-02-18T08:53:09.559Z,0.70
2023-02-18T08:58:30.158Z,2.20
2023-02-18T09:03:51.008Z,0.77
2023-02-18T09:09:11.559Z,0.95
2023-02-18T09:14:32.638Z,0.40
2023-02-18T09:19:53.598Z,0.93
2023-02-18T09:25:14.433Z,0.30
2023-02-18T09:30:35.387Z,0.30
2023-02-18T09:35:56.406Z,0.40
2023-02-18T09:41:23.152Z,0.75
2023-02-18T09:46:52.505Z,0.45
2023-02-18T09:52:19.036Z,0.60
2023-02-18T09:57:45.206Z,0.32
2023-02-18T10:03:18.418Z,0.45
2023-02-18T10:08:51.088Z,0.50
2023-02-18T10:14:15.008Z,0.50
2023-02-18T10:19:41.100Z,0.20
2023-02-18T10:25:07.266Z,0.40
2023-02-18T10:30:34.564Z,0.30
2023-02-18T10:36:04.019Z,0.68
2023-02-18T10:42:02.564Z,0.90
2023-02-18T10:47:43.672Z,0.73
2023-02-18T10:53:37.618Z,0.50
2023-02-18T10:59:19.048Z,0.98
2023-02-18T11:04:43.627Z,0.80
2023-02-18T11:10:19.442Z,1.33
2023-02-18T11:16:01.111Z,1.00
2023-02-18T11:21:35.781Z,1.27
2023-02-18T11:26:56.479Z,1.77
2023-02-18T11:32:18.462Z,1.90
2023-02-18T11:37:39.295Z,2.35
2023-02-18T11:43:14.659Z,2.28
2023-02-18T11:48:35.774Z,2.45
2023-02-18T11:54:05.486Z,3.47
2023-02-18T11:59:28.837Z,3.17
2023-02-18T12:05:15.559Z,5.18
2023-02-18T12:10:53.890Z,4.32
2023-02-18T12:16:39.845Z,5.55
2023-02-18T12:22:13.758Z,3.33
2023-02-18T12:28:11.190Z,3.65
2023-02-18T12:33:59.268Z,3.72
2023-02-18T12:40:14.215Z,4.70
2023-02-18T12:45:44.427Z,5.00
2023-02-18T12:56:53.910Z,3.65
2023-02-18T13:02:24.594Z,3.70
2023-02-18T13:08:03.792Z,4.38
2023-02-18T13:13:40.185Z,3.15
2023-02-18T13:19:18.797Z,3.53
2023-02-18T13:24:42.806Z,3.30
2023-02-18T13:30:34.487Z,3.25
2023-02-18T13:36:01.483Z,3.65
2023-02-18T13:41:25.766Z,2.78
2023-02-18T13:46:57.604Z,2.80
2023-02-18T13:52:20.612Z,2.63
2023-02-18T13:57:41.468Z,3.20
2023-02-18T14:03:29.722Z,3.45
2023-02-18T14:09:02.007Z,3.78
2023-02-18T14:14:25.853Z,3.25
2023-02-18T14:20:01.937Z,2.20
2023-02-18T14:25:49.923Z,3.53
2023-02-18T14:31:14.297Z,2.75
2023-02-18T14:37:10.748Z,3.10
2023-02-18T14:42:55.270Z,4.47
2023-02-18T14:48:41.613Z,5.07
2023-02-18T14:54:06.224Z,3.45
2023-02-18T14:59:31.363Z,2.60
2023-02-18T15:04:52.387Z,4.50
2023-02-18T15:10:16.336Z,3.05
2023-02-18T15:15:37.337Z,2.30
2023-02-18T15:21:02.107Z,3.22
2023-02-18T15:26:23.218Z,5.78
2023-02-18T15:31:43.874Z,3.17
2023-02-18T15:37:08.488Z,2.95
2023-02-18T15:42:34.535Z,2.78
2023-02-18T15:47:57.678Z,2.85
2023-02-18T15:53:20.796Z,2.83
2023-02-18T15:58:42.242Z,3.22
2023-02-18T16:04:06.288Z,2.42
2023-02-18T16:09:31.996Z,3.15
2023-02-18T16:14:54.934Z,2.53
2023-02-18T16:20:27.557Z,2.40
2023-02-18T16:25:49.614Z,4.10
2023-02-18T16:31:10.333Z,2.45
2023-02-18T16:36:31.790Z,3.60
2023-02-18T16:41:52.821Z,2.13
2023-02-18T16:47:16.466Z,1.88
2023-02-18T16:52:37.476Z,1.23
2023-02-18T16:57:58.639Z,2.17
2023-02-18T17:03:20.023Z,1.95
2023-02-18T17:08:41.136Z,1.17
2023-02-18T17:14:05.208Z,0.68
2023-02-18T17:19:26.335Z,0.88
2023-02-18T17:24:47.044Z,0.60
2023-02-18T17:30:08.456Z,0.60
2023-02-18T17:35:29.437Z,0.60
2023-02-18T17:40:50.705Z,0.68
2023-02-18T17:46:17.058Z,3.58
2023-02-18T17:51:39.351Z,2.17
2023-02-18T17:57:00.424Z,1.08
2023-02-18T18:02:28.391Z,0.85
2023-02-18T18:07:51.691Z,1.95
2023-02-18T18:13:26.302Z,2.03
2023-02-18T18:18:47.273Z,0.80
2023-02-18T18:24:12.084Z,0.63
2023-02-18T18:29:33.583Z,0.95
2023-02-18T18:34:54.364Z,1.55
2023-02-18T18:40:15.214Z,2.10
2023-02-18T18:45:39.867Z,1.10
2023-02-18T18:51:02.325Z,1.27
2023-02-18T18:56:23.365Z,4.68
2023-02-18T19:01:44.782Z,1.83
2023-02-18T19:07:05.414Z,0.40
2023-02-18T19:12:26.249Z,0.40
2023-02-18T19:17:49.969Z,1.02
2023-02-18T19:23:12.697Z,0.55
2023-02-18T19:28:33.818Z,0.85
2023-02-18T19:33:55.637Z,1.10
2023-02-18T19:39:16.599Z,1.52
2023-02-18T19:44:37.526Z,1.20
2023-02-18T19:50:00.102Z,1.25
2023-02-18T19:55:22.185Z,0.93
2023-02-18T20:00:43.782Z,0.70
2023-02-18T20:06:05.074Z,0.55
2023-02-18T20:11:25.943Z,1.10
2023-02-18T20:16:47.064Z,0.82
2023-02-18T20:22:10.433Z,0.85
2023-02-18T20:27:32.876Z,1.52
2023-02-18T20:32:54.075Z,1.70
2023-02-18T20:38:14.761Z,0.77
2023-02-18T20:43:35.949Z,3.40
2023-02-18T20:48:56.941Z,1.23
2023-02-18T20:54:22.145Z,0.70
2023-02-18T20:59:43.423Z,1.63
2023-02-18T21:05:06.975Z,0.77
2023-02-18T21:10:27.772Z,1.77
2023-02-18T21:15:49.060Z,0.73
2023-02-18T21:21:10.727Z,1.60
2023-02-18T21:26:32.463Z,0.60
2023-02-18T21:31:53.664Z,0.85
2023-02-18T21:37:14.294Z,0.88
2023-02-18T21:42:35.273Z,2.08
2023-02-18T21:47:58.441Z,1.25
2023-02-18T21:53:18.959Z,1.33
2023-02-18T21:58:41.820Z,2.42
2023-02-18T22:04:02.984Z,0.77
2023-02-18T22:09:23.808Z,1.17
2023-02-18T22:14:44.750Z,0.82
2023-02-18T22:20:07.340Z,1.50
2023-02-18T22:25:28.115Z,2.00
2023-02-18T22:30:49.138Z,0.80
2023-02-18T22:36:10.772Z,1.92
2023-02-18T22:41:33.248Z,1.30
2023-02-18T22:46:58.393Z,1.00
2023-02-18T22:52:19.315Z,3.10
2023-02-18T22:57:40.065Z,1.35
2023-02-18T23:03:00.713Z,1.75
2023-02-18T23:08:22.025Z,0.70
2023-02-18T23:13:44.059Z,0.60
2023-02-18T23:19:04.907Z,1.15
2023-02-18T23:24:25.623Z,1.35
2023-02-18T23:29:46.479Z,1.33
2023-02-18T23:35:07.326Z,2.97
2023-02-18T23:40:28.061Z,1.23
2023-02-18T23:45:48.927Z,0.80
2023-02-18T23:51:12.710Z,0.90
2023-02-18T23:56:33.495Z,0.85
